Time;durP1;ratioP1;P1;durP2;ratioP2;P2;SDS_P1;SDS_P2;PMS_P1;PMS_P2;Temp;Humidity;BMP_temperature;BMP_pressure;BME280_temperature;BME280_humidity;BME280_pressure;Samples;Min_cycle;Max_cycle;Signal;HPM_P1;HPM_P2
2021/11/27 00:01:40;;;;;;;4.43;1.97;;;;;;;0.22;84.63;92904.63;5031316;28;20215;-82
2021/11/27 00:04:06;;;;;;;3.57;2.00;;;;;;;0.16;85.93;92899.31;5015956;28;20209;-80
2021/11/27 00:06:33;;;;;;;3.10;1.77;;;;;;;0.08;86.52;92901.78;5019617;28;20186;-82
2021/11/27 00:08:58;;;;;;;4.10;2.03;;;;;;;-0.08;87.40;92894.84;5034049;28;20237;-82
2021/11/27 00:11:24;;;;;;;2.77;1.80;;;;;;;-0.08;88.33;92890.56;5016864;28;20233;-81
2021/11/27 00:13:50;;;;;;;4.50;1.87;;;;;;;-0.19;88.97;92885.66;5034003;28;20194;-82
2021/11/27 00:16:16;;;;;;;2.50;1.77;;;;;;;-0.18;88.94;92878.81;5034017;28;20232;-82
2021/11/27 00:18:42;;;;;;;3.83;2.23;;;;;;;-0.17;88.94;92872.78;5017653;28;20579;-82
2021/11/27 00:21:10;;;;;;;4.77;2.20;;;;;;;-0.25;88.77;92863.31;5038911;28;20230;-82
2021/11/27 00:23:38;;;;;;;2.40;1.70;;;;;;;-0.21;89.14;92872.25;5023354;28;20223;-80
2021/11/27 00:26:07;;;;;;;3.13;1.80;;;;;;;-0.38;89.64;92868.78;5025543;28;20287;-81
2021/11/27 00:28:33;;;;;;;3.13;1.87;;;;;;;-0.34;89.61;92861.66;5044107;28;20542;-79
2021/11/27 00:31:00;;;;;;;3.33;1.83;;;;;;;-0.46;90.00;92865.38;5026815;28;20308;-79
2021/11/27 00:33:26;;;;;;;4.93;1.90;;;;;;;-0.50;89.95;92857.22;5043441;28;20662;-80
2021/11/27 00:35:52;;;;;;;2.40;1.60;;;;;;;-0.48;89.87;92860.41;5043079;28;20192;-80
2021/11/27 00:38:17;;;;;;;3.27;1.80;;;;;;;-0.49;89.92;92858.81;5026001;28;20196;-80
2021/11/27 00:40:45;;;;;;;2.53;1.70;;;;;;;-0.53;90.34;92852.44;5036799;28;20256;-80
2021/11/27 00:43:11;;;;;;;1.73;1.47;;;;;;;-0.60;90.89;92852.22;5034966;28;20202;-80
2021/11/27 00:45:37;;;;;;;3.87;1.80;;;;;;;-0.57;91.26;92848.56;5035954;28;20660;-81
2021/11/27 00:48:04;;;;;;;2.03;1.60;;;;;;;-0.53;91.52;92839.69;5035449;28;20182;-80
2021/11/27 00:50:33;;;;;;;3.97;1.80;;;;;;;-0.52;91.17;92831.09;5019284;28;20217;-81
2021/11/27 00:53:00;;;;;;;3.40;1.90;;;;;;;-0.66;91.72;92822.19;5034672;28;20201;-81
2021/11/27 00:55:26;;;;;;;2.87;1.67;;;;;;;-0.60;91.77;92831.81;5019330;28;20277;-80
2021/11/27 00:57:51;;;;;;;4.30;1.83;;;;;;;-0.66;92.18;92826.50;5036656;28;20261;-79
2021/11/27 01:00:24;;;;;;;3.97;1.60;;;;;;;-0.65;92.62;92823.78;5019519;28;20244;-79
2021/11/27 01:02:51;;;;;;;3.07;1.37;;;;;;;-0.61;92.52;92819.22;5034965;28;20205;-82
2021/11/27 01:05:17;;;;;;;2.23;1.40;;;;;;;-0.66;92.71;92816.31;5019078;28;20181;-81
2021/11/27 01:07:43;;;;;;;2.33;1.57;;;;;;;-0.73;93.07;92813.53;5035642;28;20185;-81
2021/11/27 01:10:11;;;;;;;2.30;1.23;;;;;;;-0.67;93.02;92809.59;5019039;28;20278;-81
2021/11/27 01:12:37;;;;;;;2.50;1.47;;;;;;;-0.68;93.54;92808.00;5018806;28;20265;-82
2021/11/27 01:15:04;;;;;;;2.43;1.60;;;;;;;-0.56;93.31;92804.28;5035998;28;20181;-80
2021/11/27 01:17:29;;;;;;;2.10;1.60;;;;;;;-0.58;92.77;92790.88;5019763;28;20621;-81
2021/11/27 01:19:55;;;;;;;1.83;1.40;;;;;;;-0.59;92.97;92792.63;5020525;28;20276;-81
2021/11/27 01:22:21;;;;;;;1.30;1.20;;;;;;;-0.62;93.32;92792.09;5037363;28;20587;-82
2021/11/27 01:24:47;;;;;;;1.60;1.10;;;;;;;-0.66;93.43;92791.63;5036389;28;20182;-82
2021/11/27 01:27:13;;;;;;;3.07;1.60;;;;;;;-0.72;93.37;92781.19;5036601;28;20178;-80
2021/11/27 01:29:40;;;;;;;1.83;1.13;;;;;;;-0.75;93.52;92778.97;5020593;28;20217;-80
2021/11/27 01:32:07;;;;;;;2.63;1.30;;;;;;;-0.89;93.77;92775.97;5058672;28;20232;-80
2021/11/27 01:34:32;;;;;;;2.57;1.70;;;;;;;-0.91;93.85;92782.97;5056435;28;20186;-81
2021/11/27 01:36:58;;;;;;;1.93;1.43;;;;;;;-1.00;94.52;92788.13;5036759;28;20193;-80
2021/11/27 01:39:23;;;;;;;2.50;1.70;;;;;;;-0.98;94.31;92787.03;5036160;28;20554;-81
2021/11/27 01:41:49;;;;;;;2.13;1.73;;;;;;;-1.01;94.16;92784.78;5035748;28;20190;-81
2021/11/27 01:44:14;;;;;;;4.57;1.77;;;;;;;-1.07;94.50;92782.81;5036266;28;20225;-80
2021/11/27 01:46:40;;;;;;;2.43;1.70;;;;;;;-1.12;94.46;92787.56;5035986;28;20191;-80
2021/11/27 01:49:07;;;;;;;3.60;1.63;;;;;;;-1.14;95.30;92792.00;5055785;28;20211;-80
2021/11/27 01:51:32;;;;;;;3.57;2.03;;;;;;;-1.10;94.99;92790.75;5055708;28;20176;-81
2021/11/27 01:54:05;;;;;;;2.23;1.50;;;;;;;-1.08;95.18;92790.59;5039570;28;20208;-81
2021/11/27 01:56:37;;;;;;;5.20;2.07;;;;;;;-1.13;95.14;92780.88;5056948;28;20183;-80
2021/11/27 01:59:03;;;;;;;2.20;1.87;;;;;;;-1.07;95.31;92780.28;5055914;28;20183;-81
2021/11/27 02:01:31;;;;;;;4.43;2.17;;;;;;;-1.09;95.45;92778.81;5054608;28;20172;-81
2021/11/27 02:03:57;;;;;;;3.07;2.23;;;;;;;-1.10;95.64;92779.78;5054789;28;20671;-81
2021/11/27 02:06:23;;;;;;;2.43;1.80;;;;;;;-1.01;95.66;92772.06;5054923;28;20187;-81
2021/11/27 02:08:51;;;;;;;4.33;1.60;;;;;;;-1.00;95.90;92768.56;5037382;28;20267;-81
2021/11/27 02:11:21;;;;;;;2.80;1.87;;;;;;;-0.93;95.87;92773.88;5036985;28;20184;-80
2021/11/27 02:13:47;;;;;;;4.60;1.70;;;;;;;-0.92;96.24;92771.19;5039189;28;20211;-81
2021/11/27 02:16:13;;;;;;;3.70;1.90;;;;;;;-0.84;95.99;92779.84;5056308;28;20557;-82
2021/11/27 02:18:38;;;;;;;3.07;1.50;;;;;;;-0.82;95.69;92768.53;5055428;28;20390;-79
2021/11/27 02:21:07;;;;;;;4.20;1.57;;;;;;;-0.79;96.12;92765.72;5054285;28;20566;-79
2021/11/27 02:23:33;;;;;;;1.83;1.50;;;;;;;-0.75;96.05;92766.22;5054229;28;20223;-80
2021/11/27 02:25:59;;;;;;;1.83;1.30;;;;;;;-0.74;96.02;92766.06;5054421;28;20189;-80
2021/11/27 02:28:25;;;;;;;1.63;1.20;;;;;;;-0.73;96.13;92759.22;5054273;28;20248;-81
2021/11/27 02:30:50;;;;;;;2.40;1.37;;;;;;;-0.68;96.08;92768.03;5055084;28;20208;-80
2021/11/27 02:33:16;;;;;;;2.90;1.20;;;;;;;-0.66;96.09;92762.78;5054438;28;20200;-80
2021/11/27 02:35:41;;;;;;;2.87;1.30;;;;;;;-0.64;96.13;92768.53;5055092;28;20181;-82
2021/11/27 02:38:06;;;;;;;1.37;1.07;;;;;;;-0.60;95.98;92768.09;5055346;28;20185;-81
2021/11/27 02:40:33;;;;;;;2.33;1.70;;;;;;;-0.55;96.02;92765.09;5055641;28;20268;-81
2021/11/27 02:42:58;;;;;;;2.70;1.50;;;;;;;-0.53;96.11;92764.94;5054621;28;20370;-80
2021/11/27 02:45:24;;;;;;;1.87;1.17;;;;;;;-0.57;96.22;92761.88;5055332;28;20643;-80
2021/11/27 02:47:49;;;;;;;1.50;1.37;;;;;;;-0.54;96.81;92759.03;5054456;28;20200;-81
2021/11/27 02:50:14;;;;;;;2.43;1.50;;;;;;;-0.62;97.29;92753.88;5055017;28;20213;-82
2021/11/27 02:52:41;;;;;;;1.33;1.13;;;;;;;-0.55;96.88;92752.34;5054087;28;20679;-81
2021/11/27 02:55:07;;;;;;;1.87;1.27;;;;;;;-0.59;97.52;92754.41;5054461;28;20551;-81
2021/11/27 02:57:32;;;;;;;1.53;1.37;;;;;;;-0.52;97.91;92746.16;5054905;28;20177;-81
2021/11/27 02:59:59;;;;;;;1.50;1.13;;;;;;;-0.57;98.16;92755.03;5054348;28;20226;-81
2021/11/27 03:02:25;;;;;;;1.80;1.50;;;;;;;-0.55;98.65;92756.63;5054282;28;20204;-81
2021/11/27 03:04:50;;;;;;;4.20;1.43;;;;;;;-0.59;99.38;92759.50;5054792;28;20651;-81
2021/11/27 03:07:16;;;;;;;2.67;1.50;;;;;;;-0.56;99.08;92753.28;5055675;28;20271;-81
2021/11/27 03:09:41;;;;;;;1.40;1.23;;;;;;;-0.56;99.50;92753.28;5054821;28;20212;-81
2021/11/27 03:12:07;;;;;;;1.63;1.40;;;;;;;-0.59;99.99;92751.06;5053977;28;20553;-80
2021/11/27 03:14:32;;;;;;;1.80;1.20;;;;;;;-0.53;99.98;92744.53;5037671;28;20483;-81
2021/11/27 03:16:58;;;;;;;1.63;1.23;;;;;;;-0.50;99.95;92739.16;5054296;28;20329;-80
2021/11/27 03:19:24;;;;;;;1.40;1.27;;;;;;;-0.44;100.00;92733.44;5054767;28;20177;-80
2021/11/27 03:21:49;;;;;;;1.20;1.10;;;;;;;-0.44;100.00;92734.28;5070550;28;20177;-81
2021/11/27 03:24:16;;;;;;;2.57;1.00;;;;;;;-0.50;100.00;92736.63;5053932;28;20181;-81
2021/11/27 03:26:41;;;;;;;1.20;1.10;;;;;;;-0.44;100.00;92729.16;5054542;28;20570;-81
2021/11/27 03:29:07;;;;;;;3.83;1.23;;;;;;;-0.42;100.00;92737.47;5054966;28;20225;-80
2021/11/27 03:31:32;;;;;;;1.17;1.00;;;;;;;-0.48;100.00;92730.41;5054820;28;20184;-82
2021/11/27 03:33:58;;;;;;;1.27;0.87;;;;;;;-0.46;100.00;92725.94;5053558;28;20197;-82
2021/11/27 03:36:23;;;;;;;1.30;0.90;;;;;;;-0.53;100.00;92724.97;5052757;28;20173;-81
2021/11/27 03:38:49;;;;;;;1.20;0.97;;;;;;;-0.52;100.00;92726.56;5052204;28;20288;-81
2021/11/27 03:41:15;;;;;;;1.03;0.93;;;;;;;-0.46;100.00;92728.50;5051720;28;20211;-82
2021/11/27 03:43:42;;;;;;;1.30;1.10;;;;;;;-0.39;100.00;92721.84;5053390;28;20283;-81
2021/11/27 03:46:08;;;;;;;1.50;1.20;;;;;;;-0.38;100.00;92733.66;5037014;28;20182;-80
2021/11/27 03:48:40;;;;;;;1.30;1.20;;;;;;;-0.44;100.00;92728.34;5055426;28;20286;-80
2021/11/27 03:51:10;;;;;;;2.13;0.80;;;;;;;-0.34;100.00;92729.06;5054812;28;20278;-82
2021/11/27 03:53:38;;;;;;;1.00;0.90;;;;;;;-0.45;100.00;92735.19;5055155;28;20239;-81
2021/11/27 03:56:06;;;;;;;1.33;1.03;;;;;;;-0.42;100.00;92734.13;5055947;28;20180;-80
2021/11/27 03:58:31;;;;;;;1.53;1.07;;;;;;;-0.44;100.00;92738.53;5056335;28;20177;-80
2021/11/27 04:00:58;;;;;;;1.70;1.30;;;;;;;-0.37;100.00;92737.78;5036544;28;20181;-81
2021/11/27 04:03:23;;;;;;;2.30;1.23;;;;;;;-0.37;100.00;92742.09;5051080;28;20196;-80
2021/11/27 04:05:51;;;;;;;1.53;1.30;;;;;;;-0.41;100.00;92738.25;5051428;28;20194;-81
2021/11/27 04:08:17;;;;;;;1.53;1.43;;;;;;;-0.41;100.00;92743.34;5051599;28;20179;-81
2021/11/27 04:10:42;;;;;;;2.93;1.40;;;;;;;-0.45;100.00;92745.38;5053086;28;20431;-80
2021/11/27 04:13:08;;;;;;;1.70;1.50;;;;;;;-0.45;100.00;92744.59;5050686;28;20339;-80
2021/11/27 04:15:33;;;;;;;2.63;1.40;;;;;;;-0.46;100.00;92746.34;5051660;28;20713;-80
2021/11/27 04:17:59;;;;;;;1.97;1.50;;;;;;;-0.50;100.00;92742.50;5053157;28;20499;-80
2021/11/27 04:20:24;;;;;;;1.10;1.00;;;;;;;-0.39;100.00;92733.81;5068733;28;20291;-81
2021/11/27 04:22:50;;;;;;;1.07;1.03;;;;;;;-0.51;100.00;92740.91;5068027;28;20279;-81
2021/11/27 04:25:16;;;;;;;1.43;1.20;;;;;;;-0.43;100.00;92733.31;5052626;28;20193;-80
2021/11/27 04:27:41;;;;;;;1.37;1.27;;;;;;;-0.42;100.00;92736.66;5052634;28;20177;-80
2021/11/27 04:30:09;;;;;;;2.00;1.50;;;;;;;-0.41;100.00;92740.81;5053357;28;20274;-80
2021/11/27 04:32:35;;;;;;;2.50;1.90;;;;;;;-0.46;100.00;92736.16;5051591;28;20243;-80
2021/11/27 04:35:00;;;;;;;1.60;1.50;;;;;;;-0.51;100.00;92752.84;5052319;28;20177;-81
2021/11/27 04:37:26;;;;;;;1.57;1.30;;;;;;;-0.51;100.00;92757.97;5052445;28;20189;-80
2021/11/27 04:39:51;;;;;;;2.13;1.50;;;;;;;-0.44;100.00;92762.31;5052332;28;20196;-80
2021/11/27 04:42:17;;;;;;;1.73;1.50;;;;;;;-0.44;100.00;92754.66;5052319;28;20672;-80
2021/11/27 04:44:42;;;;;;;2.33;1.70;;;;;;;-0.52;100.00;92764.81;5052618;28;20173;-81
2021/11/27 04:47:07;;;;;;;2.07;1.80;;;;;;;-0.43;100.00;92758.81;5052104;28;20185;-80
2021/11/27 04:49:33;;;;;;;2.40;1.27;;;;;;;-0.50;100.00;92770.53;5052580;28;20198;-80
2021/11/27 04:51:58;;;;;;;1.93;1.70;;;;;;;-0.52;100.00;92764.81;5051430;28;20173;-82
2021/11/27 04:54:23;;;;;;;1.97;1.77;;;;;;;-0.49;100.00;92767.06;5052403;28;20174;-80
2021/11/27 04:56:49;;;;;;;2.50;1.80;;;;;;;-0.47;100.00;92766.88;5068406;28;20668;-81
2021/11/27 04:59:14;;;;;;;1.30;1.20;;;;;;;-0.46;100.00;92760.84;5051930;28;20283;-80
2021/11/27 05:01:39;;;;;;;1.80;1.40;;;;;;;-0.40;100.00;92762.81;5051942;28;20661;-80
2021/11/27 05:04:05;;;;;;;2.90;1.60;;;;;;;-0.50;100.00;92759.56;5051753;28;20209;-81
2021/11/27 05:06:31;;;;;;;3.33;1.40;;;;;;;-0.46;100.00;92766.75;5051720;28;20185;-80
2021/11/27 05:08:56;;;;;;;2.97;1.73;;;;;;;-0.52;100.00;92777.56;5051986;28;20184;-80
2021/11/27 05:11:22;;;;;;;1.40;1.30;;;;;;;-0.51;100.00;92776.59;5035271;28;20274;-81
2021/11/27 05:13:47;;;;;;;2.03;1.53;;;;;;;-0.55;100.00;92765.09;5039018;28;20203;-80
2021/11/27 05:16:12;;;;;;;2.93;1.43;;;;;;;-0.57;100.00;92761.88;5055284;28;20192;-81
2021/11/27 05:18:38;;;;;;;1.50;1.30;;;;;;;-0.55;100.00;92757.44;5055661;28;20181;-80
2021/11/27 05:21:03;;;;;;;1.50;1.40;;;;;;;-0.53;100.00;92760.66;5055660;28;20179;-81
2021/11/27 05:23:28;;;;;;;1.43;1.20;;;;;;;-0.53;100.00;92758.13;5054947;28;20197;-80
2021/11/27 05:25:54;;;;;;;1.37;1.27;;;;;;;-0.54;100.00;92763.34;5054981;28;20526;-81
2021/11/27 05:28:20;;;;;;;2.00;1.27;;;;;;;-0.50;100.00;92764.66;5055299;28;20255;-80
2021/11/27 05:30:47;;;;;;;2.70;1.50;;;;;;;-0.45;100.00;92762.44;5055202;28;20214;-81
2021/11/27 05:33:14;;;;;;;1.47;1.30;;;;;;;-0.52;100.00;92767.34;5055128;28;20197;-82
2021/11/27 05:35:40;;;;;;;1.20;1.00;;;;;;;-0.43;100.00;92770.75;5054811;28;20173;-80
2021/11/27 05:38:05;;;;;;;1.13;1.00;;;;;;;-0.45;100.00;92772.63;5054765;28;20277;-80
2021/11/27 05:40:31;;;;;;;1.77;0.80;;;;;;;-0.46;100.00;92771.84;5038653;28;20202;-80
2021/11/27 05:42:56;;;;;;;0.80;0.80;;;;;;;-0.43;100.00;92780.97;5054611;28;20196;-80
2021/11/27 05:45:28;;;;;;;0.73;0.70;;;;;;;-0.45;100.00;92787.94;5055099;28;20238;-81
2021/11/27 05:47:55;;;;;;;0.63;0.60;;;;;;;-0.45;100.00;92775.19;5055635;28;20252;-80
2021/11/27 05:50:20;;;;;;;1.20;0.87;;;;;;;-0.47;100.00;92788.09;5037983;28;20205;-81
2021/11/27 05:52:45;;;;;;;3.27;2.10;;;;;;;-0.47;100.00;92785.53;5053129;28;20517;-80
2021/11/27 05:55:11;;;;;;;4.30;2.63;;;;;;;-0.45;100.00;92781.09;5053695;28;20482;-79
2021/11/27 05:57:36;;;;;;;5.73;3.13;;;;;;;-0.47;100.00;92779.63;5053697;28;20188;-80
2021/11/27 06:00:03;;;;;;;9.37;5.57;;;;;;;-0.44;100.00;92792.06;5053121;28;20180;-79
2021/11/27 06:02:29;;;;;;;2.60;2.10;;;;;;;-0.45;100.00;92786.19;5054185;28;20279;-80
2021/11/27 06:04:54;;;;;;;1.83;1.70;;;;;;;-0.39;100.00;92788.16;5052881;28;20189;-81
2021/11/27 06:07:19;;;;;;;1.80;1.70;;;;;;;-0.38;100.00;92784.66;5053135;28;20268;-81
2021/11/27 06:09:45;;;;;;;0.70;0.70;;;;;;;-0.38;100.00;92789.75;5054517;28;20211;-80
2021/11/27 06:12:10;;;;;;;0.70;0.70;;;;;;;-0.45;100.00;92788.72;5052827;28;20189;-81
2021/11/27 06:14:37;;;;;;;1.60;1.50;;;;;;;-0.50;100.00;92785.84;5053468;28;20181;-79
2021/11/27 06:17:03;;;;;;;1.10;1.00;;;;;;;-0.49;100.00;92791.75;5053205;28;20278;-81
2021/11/27 06:19:28;;;;;;;1.17;1.00;;;;;;;-0.48;100.00;92791.59;5053356;28;20258;-81
2021/11/27 06:21:54;;;;;;;1.10;0.90;;;;;;;-0.58;100.00;92793.44;5052117;28;20208;-81
2021/11/27 06:24:19;;;;;;;0.87;0.87;;;;;;;-0.62;100.00;92797.22;5052515;28;20641;-80
2021/11/27 06:26:44;;;;;;;0.60;0.60;;;;;;;-0.62;100.00;92802.31;5053164;28;20299;-80
2021/11/27 06:29:10;;;;;;;0.77;0.60;;;;;;;-0.65;100.00;92800.84;5069555;28;20237;-80
2021/11/27 06:31:35;;;;;;;0.60;0.60;;;;;;;-0.66;100.00;92795.91;5052261;28;20232;-80
2021/11/27 06:34:01;;;;;;;0.47;0.47;;;;;;;-0.66;100.00;92803.56;5052827;28;20205;-80
2021/11/27 06:36:26;;;;;;;0.67;0.60;;;;;;;-0.66;100.00;92803.56;5053470;28;20174;-80
2021/11/27 06:38:52;;;;;;;0.60;0.60;;;;;;;-0.71;100.00;92800.63;5052499;28;20192;-80
2021/11/27 06:41:17;;;;;;;0.93;0.50;;;;;;;-0.72;100.00;92809.22;5035904;28;20238;-81
2021/11/27 06:43:44;;;;;;;0.60;0.50;;;;;;;-0.68;100.00;92802.91;5052424;28;20233;-81
2021/11/27 06:46:09;;;;;;;0.40;0.40;;;;;;;-0.62;100.00;92797.22;5052153;28;20699;-79
2021/11/27 06:48:34;;;;;;;0.43;0.40;;;;;;;-0.48;100.00;92801.78;5052596;28;20193;-79
2021/11/27 06:51:00;;;;;;;0.40;0.40;;;;;;;-0.54;100.00;92809.22;5052951;28;20259;-80
2021/11/27 06:53:25;;;;;;;0.50;0.50;;;;;;;-0.60;100.00;92820.81;5051796;28;20692;-80
2021/11/27 06:55:51;;;;;;;0.80;0.70;;;;;;;-0.70;100.00;92828.56;5068923;28;20188;-81
2021/11/27 06:58:16;;;;;;;1.83;0.63;;;;;;;-0.65;100.00;92823.78;5052411;28;20212;-80
2021/11/27 07:00:42;;;;;;;0.70;0.70;;;;;;;-0.64;100.00;92832.25;5052530;28;20181;-80
2021/11/27 07:03:07;;;;;;;1.00;0.90;;;;;;;-0.61;100.00;92837.88;5034389;28;20296;-81
2021/11/27 07:05:32;;;;;;;1.10;1.00;;;;;;;-0.64;100.00;92845.00;5053868;28;20720;-81
2021/11/27 07:07:58;;;;;;;1.43;1.17;;;;;;;-0.67;100.00;92847.84;5051901;28;20177;-80
2021/11/27 07:10:23;;;;;;;1.40;1.10;;;;;;;-0.69;100.00;92848.00;5053031;28;20209;-80
2021/11/27 07:12:48;;;;;;;1.20;1.07;;;;;;;-0.67;100.00;92853.72;5052146;28;20196;-81
2021/11/27 07:15:14;;;;;;;1.17;0.83;;;;;;;-0.66;100.00;92862.97;5068825;28;20185;-81
2021/11/27 07:17:40;;;;;;;1.23;1.03;;;;;;;-0.75;100.00;92857.97;5052056;28;20585;-81
2021/11/27 07:20:06;;;;;;;0.80;0.80;;;;;;;-0.67;100.00;92866.47;5034850;28;20228;-81
2021/11/27 07:22:32;;;;;;;1.17;1.00;;;;;;;-0.64;100.00;92871.28;5050511;28;20205;-80
2021/11/27 07:24:57;;;;;;;0.80;0.80;;;;;;;-0.64;100.00;92876.38;5050340;28;20193;-82
2021/11/27 07:27:23;;;;;;;0.87;0.80;;;;;;;-0.64;100.00;92883.22;5041326;28;20667;-82
2021/11/27 07:29:48;;;;;;;1.30;1.20;;;;;;;-0.61;100.00;92886.28;5044562;28;20303;-81
2021/11/27 07:32:13;;;;;;;1.20;1.07;;;;;;;-0.52;100.00;92894.81;5066629;28;20205;-82
2021/11/27 07:34:39;;;;;;;1.30;1.20;;;;;;;-0.55;100.00;92894.28;5067888;28;20552;-82
2021/11/27 07:37:04;;;;;;;1.63;1.53;;;;;;;-0.44;100.00;92896.59;5068533;28;20208;-81
2021/11/27 07:39:30;;;;;;;1.50;1.40;;;;;;;-0.39;100.00;92902.09;5068695;28;20232;-81
2021/11/27 07:41:55;;;;;;;2.50;1.37;;;;;;;-0.32;100.00;92906.47;5035621;28;20192;-82
2021/11/27 07:44:20;;;;;;;1.57;1.30;;;;;;;-0.28;100.00;92902.66;5068461;28;20545;-82
2021/11/27 07:46:50;;;;;;;1.20;1.10;;;;;;;-0.19;100.00;92902.72;5052213;28;20181;-80
2021/11/27 07:49:16;;;;;;;1.40;1.30;;;;;;;-0.19;100.00;92911.16;5052114;28;20225;-80
2021/11/27 07:51:41;;;;;;;1.23;1.13;;;;;;;-0.20;100.00;92914.66;5052493;28;20183;-80
2021/11/27 07:54:07;;;;;;;0.80;0.80;;;;;;;-0.25;100.00;92913.53;5051576;28;20638;-80
2021/11/27 07:56:32;;;;;;;2.43;1.70;;;;;;;-0.15;100.00;92921.91;5069323;28;20292;-81
2021/11/27 07:58:57;;;;;;;1.50;1.40;;;;;;;-0.20;100.00;92926.63;5069004;28;20263;-81
2021/11/27 08:01:23;;;;;;;1.40;1.10;;;;;;;-0.11;100.00;92925.75;5051847;28;20196;-81
2021/11/27 08:03:48;;;;;;;1.37;1.00;;;;;;;0.01;100.00;92931.44;5068898;28;20223;-82
2021/11/27 08:06:13;;;;;;;0.87;0.87;;;;;;;0.03;100.00;92932.88;5052427;28;20186;-81
2021/11/27 08:08:39;;;;;;;1.10;1.00;;;;;;;-0.03;100.00;92946.22;5069684;28;20264;-80
2021/11/27 08:11:05;;;;;;;1.30;1.00;;;;;;;0.09;100.00;92939.13;5052894;28;20606;-81
2021/11/27 08:13:31;;;;;;;1.53;1.20;;;;;;;0.14;100.00;92940.28;5068529;28;20205;-80
2021/11/27 08:15:56;;;;;;;11.50;7.97;;;;;;;0.19;100.00;92943.22;5052404;28;20189;-81
2021/11/27 08:18:22;;;;;;;3.27;2.60;;;;;;;0.23;100.00;92946.25;5053028;28;20181;-82
2021/11/27 08:20:49;;;;;;;2.20;1.90;;;;;;;0.32;100.00;92950.47;5068901;28;20229;-82
2021/11/27 08:23:16;;;;;;;1.57;1.47;;;;;;;0.47;100.00;92948.16;5052812;28;20197;-82
2021/11/27 08:25:41;;;;;;;1.70;1.40;;;;;;;0.53;99.76;92948.38;5071167;28;20273;-82
2021/11/27 08:28:07;;;;;;;1.93;1.73;;;;;;;0.78;99.05;92951.03;5050166;28;20826;-81
2021/11/27 08:30:32;;;;;;;2.13;1.80;;;;;;;0.91;98.69;92951.44;5016305;28;20210;-81
2021/11/27 08:32:57;;;;;;;2.80;2.37;;;;;;;0.92;98.26;92952.25;5050342;28;20198;-81
2021/11/27 08:35:23;;;;;;;1.97;1.83;;;;;;;0.96;98.25;92949.22;5017045;28;20232;-82
2021/11/27 08:37:48;;;;;;;2.60;2.23;;;;;;;0.87;98.09;92959.56;5017025;28;20672;-81
2021/11/27 08:40:14;;;;;;;2.23;2.03;;;;;;;0.90;98.26;92961.81;5017542;28;20182;-81
2021/11/27 08:42:39;;;;;;;2.43;2.00;;;;;;;0.80;97.84;92965.28;5014912;28;20209;-80
2021/11/27 08:45:06;;;;;;;2.50;2.20;;;;;;;0.83;98.47;92967.53;5032756;28;20384;-79
2021/11/27 08:47:31;;;;;;;2.77;2.10;;;;;;;0.97;97.54;92971.28;5019410;28;20553;-81
2021/11/27 08:49:59;;;;;;;1.87;1.67;;;;;;;0.80;97.88;92965.28;5036136;28;20196;-79
2021/11/27 08:52:24;;;;;;;2.77;1.83;;;;;;;0.92;97.92;92963.25;5037085;28;20216;-80
2021/11/27 08:54:49;;;;;;;1.47;1.37;;;;;;;0.82;97.10;92975.34;5019314;28;20301;-81
2021/11/27 08:57:15;;;;;;;4.83;2.10;;;;;;;0.88;96.81;92974.72;5036337;28;20227;-81
2021/11/27 08:59:41;;;;;;;2.13;2.00;;;;;;;0.80;97.64;92984.94;5035422;28;20234;-79
2021/11/27 09:02:07;;;;;;;2.30;2.10;;;;;;;0.80;97.66;92980.63;5018606;28;20175;-82
2021/11/27 09:04:33;;;;;;;1.70;1.60;;;;;;;0.79;98.08;92978.19;5019889;28;20190;-81
2021/11/27 09:06:59;;;;;;;2.90;2.53;;;;;;;0.73;98.07;92977.06;5036033;28;20182;-81
2021/11/27 09:09:24;;;;;;;2.07;1.67;;;;;;;0.78;98.52;92982.50;5034671;28;20352;-82
2021/11/27 09:11:53;;;;;;;2.97;1.63;;;;;;;0.81;98.13;92987.31;5034700;28;20648;-81
2021/11/27 09:14:19;;;;;;;3.60;2.43;;;;;;;0.84;98.55;92992.13;5018308;28;20186;-81
2021/11/27 09:16:45;;;;;;;4.57;3.37;;;;;;;0.92;98.31;92999.03;5018959;28;20178;-82
2021/11/27 09:19:10;;;;;;;4.50;3.03;;;;;;;0.89;98.31;93001.09;5036166;28;20549;-83
2021/11/27 09:21:36;;;;;;;2.90;2.60;;;;;;;1.08;98.26;93004.22;5017580;28;20191;-83
2021/11/27 09:24:03;;;;;;;4.60;4.20;;;;;;;1.21;97.77;92997.88;5034963;28;20202;-82
2021/11/27 09:26:29;;;;;;;5.87;4.07;;;;;;;1.31;98.23;93003.69;5034580;28;20649;-82
2021/11/27 09:28:54;;;;;;;12.50;8.43;;;;;;;1.26;97.64;93004.16;5017868;28;20178;-82
2021/11/27 09:31:20;;;;;;;8.67;6.00;;;;;;;1.36;97.42;93006.59;5033368;28;20257;-82
2021/11/27 09:33:45;;;;;;;8.20;5.37;;;;;;;1.42;97.49;93009.34;5034543;28;20202;-82
2021/11/27 09:36:14;;;;;;;17.50;10.70;;;;;;;1.38;97.02;93008.03;5034273;28;20609;-81
2021/11/27 09:38:40;;;;;;;6.27;4.93;;;;;;;1.50;97.40;93002.63;5018377;28;20205;-82
2021/11/27 09:41:39;;;;;;;3.90;3.20;;;;;;;1.63;96.60;93003.00;5033945;28;20197;-81
2021/11/27 09:44:06;;;;;;;4.23;3.17;;;;;;;1.61;96.64;93004.91;5034660;28;20226;-81
2021/11/27 09:46:34;;;;;;;27.43;14.10;;;;;;;1.56;96.64;93007.91;5017764;28;20178;-82
2021/11/27 09:49:05;;;;;;;8.70;5.00;;;;;;;1.79;95.97;93008.16;5017646;28;20205;-80
2021/11/27 09:51:32;;;;;;;3.40;3.10;;;;;;;1.69;95.23;93020.28;5017262;28;20642;-82
2021/11/27 09:53:58;;;;;;;3.63;2.83;;;;;;;1.49;96.22;93014.59;5033304;28;20194;-81
2021/11/27 09:56:24;;;;;;;3.40;3.10;;;;;;;1.68;96.64;93013.56;5034215;28;20593;-81
2021/11/27 09:58:50;;;;;;;4.13;3.50;;;;;;;1.81;96.36;93011.34;5017967;28;20614;-81
2021/11/27 10:01:17;;;;;;;5.53;3.97;;;;;;;1.88;95.91;93021.78;5017428;28;20178;-82
2021/11/27 10:03:50;;;;;;;5.63;3.43;;;;;;;1.77;95.19;93025.44;5034308;28;20261;-81
2021/11/27 10:06:21;;;;;;;6.27;4.50;;;;;;;1.80;95.08;93025.09;5034881;28;20187;-82
2021/11/27 10:08:47;;;;;;;4.50;3.23;;;;;;;1.93;95.78;93020.31;5018271;28;20269;-82
2021/11/27 10:11:12;;;;;;;10.27;8.33;;;;;;;2.07;94.75;93018.13;5033755;28;20240;-82
2021/11/27 10:13:37;;;;;;;4.00;3.60;;;;;;;2.31;94.22;93013.03;5034861;28;20277;-81
2021/11/27 10:16:03;;;;;;;2.57;2.37;;;;;;;2.63;94.13;93019.09;5017769;28;20186;-81
2021/11/27 10:18:28;;;;;;;2.93;2.70;;;;;;;2.64;93.69;93007.88;5018345;28;20182;-82
2021/11/27 10:21:13;;;;;;;2.33;2.13;;;;;;;2.67;93.45;93012.69;5035405;28;20178;-82
2021/11/27 10:23:39;;;;;;;3.47;2.63;;;;;;;2.33;92.95;93012.88;5034888;28;20201;-82
2021/11/27 10:26:05;;;;;;;3.40;2.67;;;;;;;2.33;94.00;93018.78;5017826;28;20191;-82
2021/11/27 10:28:31;;;;;;;5.23;3.63;;;;;;;2.06;93.21;93029.31;5034017;28;20175;-82
2021/11/27 10:31:04;;;;;;;2.87;2.33;;;;;;;1.85;94.28;93032.31;5016130;28;20215;-81
2021/11/27 10:33:36;;;;;;;3.77;3.47;;;;;;;1.69;95.31;93033.09;5050123;28;20678;-81
2021/11/27 10:36:06;;;;;;;4.57;4.17;;;;;;;1.50;95.38;93043.53;5018209;28;20179;-81
2021/11/27 10:38:46;;;;;;;4.60;3.67;;;;;;;1.36;95.62;93047.50;5031255;28;20550;-82
2021/11/27 10:41:14;;;;;;;3.67;3.33;;;;;;;1.23;96.52;93053.00;5025566;28;20185;-84
2021/11/27 10:44:00;;;;;;;24.60;9.90;;;;;;;1.12;96.88;93055.84;5035287;28;20228;-82
2021/11/27 10:46:32;;;;;;;1.57;1.40;;;;;;;0.99;96.89;93050.34;5051818;28;20205;-83
2021/11/27 10:48:57;;;;;;;2.80;2.43;;;;;;;0.94;97.12;93057.66;5035128;28;20242;-81
2021/11/27 10:51:23;;;;;;;41.60;23.60;;;;;;;0.92;96.85;93055.25;5035427;28;20213;-82
2021/11/27 10:53:54;;;;;;;26.87;15.70;;;;;;;0.95;97.53;93060.06;5055203;28;20247;-79
2021/11/27 10:56:19;;;;;;;6.57;5.87;;;;;;;0.93;97.84;93061.16;5053327;28;20185;-81
2021/11/27 10:59:02;;;;;;;5.70;5.10;;;;;;;0.99;97.67;93065.69;5036296;28;20189;-81
2021/11/27 11:01:28;;;;;;;7.00;6.40;;;;;;;1.03;97.98;93072.09;5035708;28;20181;-82
2021/11/27 11:03:54;;;;;;;3.60;3.30;;;;;;;1.03;97.41;93065.22;5036568;28;20198;-81
2021/11/27 11:06:24;;;;;;;1.67;1.47;;;;;;;0.91;97.75;93071.53;5036870;28;20186;-82
2021/11/27 11:08:51;;;;;;;3.37;2.50;;;;;;;0.89;98.17;93070.88;5053565;28;20181;-81
2021/11/27 11:11:19;;;;;;;2.70;2.10;;;;;;;0.86;97.98;93066.06;5035983;28;20217;-82
2021/11/27 11:13:44;;;;;;;2.03;1.53;;;;;;;0.80;98.37;93064.13;5053262;28;20206;-82
2021/11/27 11:16:10;;;;;;;1.43;1.30;;;;;;;0.96;98.36;93065.97;5052191;28;20205;-82
2021/11/27 11:18:35;;;;;;;1.83;1.73;;;;;;;1.08;98.38;93062.22;5051909;28;20181;-82
2021/11/27 11:21:03;;;;;;;2.10;1.90;;;;;;;1.16;97.88;93075.03;5035540;28;20186;-83
2021/11/27 11:23:36;;;;;;;2.20;1.87;;;;;;;1.16;97.58;93062.28;5034334;28;20214;-82
2021/11/27 11:26:04;;;;;;;0.83;0.77;;;;;;;1.18;96.94;93062.91;5035465;28;20685;-82
2021/11/27 11:28:41;;;;;;;3.40;1.53;;;;;;;1.30;97.48;93063.44;5053040;28;20174;-82